Time;durP1;ratioP1;P1;durP2;ratioP2;P2;SDS_P1;SDS_P2;PMS_P1;PMS_P2;Temp;Humidity;BMP_temperature;BMP_pressure;BME280_temperature;BME280_humidity;BME280_pressure;Samples;Min_cycle;Max_cycle;Signal;HPM_P1;HPM_P2
2021/07/31 00:02:53;;;;;;;;;;;19.50;99.90;;;18.32;92.19;95311.66;10283454;28;1939;-80
2021/07/31 00:07:56;;;;;;;;;;;19.30;99.90;;;18.28;93.55;95294.41;10271800;28;2275;-81
2021/07/31 00:12:59;;;;;;;;;;;19.20;99.90;;;18.11;94.99;95283.66;10301317;28;2019;-80
2021/07/31 00:18:02;;;;;;;;;;;19.00;99.90;;;17.78;97.26;95311.59;10303884;28;1934;-81
2021/07/31 00:23:04;;;;;;;;;;;18.80;99.90;;;17.68;97.68;95309.22;10291881;28;1903;-81
2021/07/31 00:28:07;;;;;;;;;;;18.70;99.90;;;17.62;99.44;95293.44;10307869;28;2107;-80
2021/07/31 00:33:10;;;;;;;;;;;18.50;99.90;;;17.59;99.85;95294.09;10286965;28;2189;-81
2021/07/31 00:38:13;;;;;;;;;;;18.40;99.90;;;17.40;100.00;95308.13;10286011;28;2195;-80
2021/07/31 00:43:16;;;;;;;;;;;18.30;99.90;;;17.33;100.00;95300.50;10286046;28;2311;-79
2021/07/31 00:48:18;;;;;;;;;;;18.20;99.90;;;17.07;100.00;95278.88;10286666;28;2112;-80
2021/07/31 00:53:21;;;;;;;;;;;17.90;99.90;;;17.12;100.00;95272.50;10301699;28;2136;-81
2021/07/31 00:58:24;;;;;;;;;;;17.80;99.90;;;17.16;100.00;95279.63;10298301;28;2093;-80
2021/07/31 01:03:26;;;;;;;;;;;17.90;99.90;;;17.26;100.00;95276.56;10292691;28;2087;-80
2021/07/31 01:08:29;;;;;;;;;;;17.90;99.90;;;17.33;100.00;95291.53;10303998;28;2473;-80
2021/07/31 01:13:32;;;;;;;;;;;18.00;99.90;;;17.16;100.00;95293.22;10299426;28;2123;-80
2021/07/31 01:18:34;;;;;;;;;;;18.00;99.90;;;17.54;98.38;95287.72;10292458;28;2156;-81
2021/07/31 01:23:37;;;;;;;;;;;18.20;99.90;;;17.51;98.08;95288.41;10303577;28;2141;-81
2021/07/31 01:28:40;;;;;;;;;;;18.20;99.90;;;17.76;97.04;95283.94;10294812;28;2153;-81
2021/07/31 01:33:43;;;;;;;;;;;18.40;99.90;;;17.64;97.23;95302.06;10291723;28;2111;-81
2021/07/31 01:38:45;;;;;;;;;;;18.40;99.90;;;17.74;97.58;95305.22;10292806;28;2268;-82
2021/07/31 01:43:48;;;;;;;;;;;18.40;99.90;;;17.68;97.46;95298.34;10285166;28;2161;-80
2021/07/31 01:48:51;;;;;;;;;;;18.50;99.90;;;17.62;98.90;95294.22;10294389;28;2192;-80
2021/07/31 01:53:53;;;;;;;;;;;18.40;99.90;;;17.68;98.32;95295.63;10280036;28;2187;-80
2021/07/31 01:58:57;;;;;;;;;;;18.40;99.90;;;17.66;98.39;95297.88;10286111;28;2176;-79
2021/07/31 02:04:00;;;;;;;;;;;18.50;99.90;;;17.91;97.36;95300.78;10287119;28;1986;-79
2021/07/31 02:09:03;;;;;;;;;;;18.50;99.90;;;18.02;96.81;95307.44;10298313;28;2363;-79
2021/07/31 02:14:05;;;;;;;;;;;18.60;99.90;;;18.07;95.40;95301.78;10290425;28;2061;-79
2021/07/31 02:19:08;;;;;;;;;;;18.80;99.90;;;18.17;95.07;95293.22;10289358;28;2119;-81
2021/07/31 02:24:11;;;;;;;;;;;18.80;99.90;;;18.04;96.00;95299.72;10293579;28;2124;-80
2021/07/31 02:29:13;;;;;;;;;;;18.90;99.90;;;18.01;95.87;95300.41;10300099;28;2220;-80
2021/07/31 02:34:16;;;;;;;;;;;18.80;99.90;;;17.99;96.07;95305.34;10290829;28;2160;-79
2021/07/31 02:39:19;;;;;;;;;;;18.80;99.90;;;17.95;96.85;95293.56;10289236;28;2132;-80
2021/07/31 02:44:22;;;;;;;;;;;18.80;99.90;;;17.75;99.40;95285.06;10287917;28;2250;-78
2021/07/31 02:49:24;;;;;;;;;;;18.70;99.90;;;17.89;96.87;95287.53;10312671;28;2092;-81
2021/07/31 02:54:27;;;;;;;;;;;18.70;99.90;;;17.78;97.76;95292.56;10291010;28;1974;-80
2021/07/31 02:59:31;;;;;;;;;;;18.60;99.90;;;17.66;98.81;95287.00;10278229;28;2289;-79
2021/07/31 03:04:34;;;;;;;;;;;18.60;99.90;;;17.69;98.81;95275.50;10279481;28;2096;-81
2021/07/31 03:09:37;;;;;;;;;;;18.50;99.90;;;17.56;98.91;95279.25;10279573;28;2167;-81
2021/07/31 03:14:40;;;;;;;;;;;18.50;99.90;;;17.45;100.00;95270.69;10292314;28;2227;-81
2021/07/31 03:19:43;;;;;;;;;;;18.40;99.90;;;17.37;100.00;95276.16;10288511;28;2231;-81
2021/07/31 03:24:45;;;;;;;;;;;18.30;99.90;;;17.31;100.00;95266.63;10279134;28;2035;-81
2021/07/31 03:29:48;;;;;;;;;;;18.30;99.90;;;17.07;100.00;95262.59;10276535;28;1970;-81
2021/07/31 03:34:51;;;;;;;;;;;18.10;99.90;;;16.97;100.00;95271.88;10274449;28;2437;-80
2021/07/31 03:39:53;;;;;;;;;;;18.00;99.90;;;16.98;100.00;95280.81;10290582;28;2037;-82
2021/07/31 03:44:56;;;;;;;;;;;17.90;99.90;;;17.26;100.00;95282.00;10287944;28;2183;-81
2021/07/31 03:49:59;;;;;;;;;;;18.00;99.90;;;17.19;100.00;95281.72;10285163;28;2173;-80
2021/07/31 03:55:02;;;;;;;;;;;18.10;99.90;;;17.25;100.00;95285.84;10291680;28;2079;-80
2021/07/31 04:00:04;;;;;;;;;;;18.10;99.90;;;17.19;100.00;95292.56;10296673;28;2179;-80
2021/07/31 04:05:07;;;;;;;;;;;18.10;99.90;;;17.26;100.00;95284.69;10289063;28;2165;-82
2021/07/31 04:10:10;;;;;;;;;;;18.10;99.90;;;17.25;100.00;95293.97;10285464;28;2280;-82
2021/07/31 04:15:13;;;;;;;;;;;18.10;99.90;;;17.37;100.00;95297.91;10279922;28;2200;-82
2021/07/31 04:20:15;;;;;;;;;;;18.10;99.90;;;17.50;99.03;95291.44;10288427;28;2538;-81
2021/07/31 04:25:18;;;;;;;;;;;18.30;99.90;;;17.54;97.74;95270.63;10286535;28;2258;-81
2021/07/31 04:30:21;;;;;;;;;;;18.30;99.90;;;17.86;96.72;95281.94;10282738;28;2240;-80
2021/07/31 04:35:24;;;;;;;;;;;18.50;99.90;;;18.21;92.60;95271.59;10287994;28;2129;-79
2021/07/31 04:40:26;;;;;;;;;;;18.80;99.90;;;18.08;93.50;95274.25;10279254;28;2141;-80
2021/07/31 04:45:29;;;;;;;;;;;18.80;99.90;;;18.34;92.48;95282.19;10296713;28;2128;-79
2021/07/31 04:50:32;;;;;;;;;;;19.00;99.90;;;18.44;91.26;95282.88;10319995;28;1980;-80
2021/07/31 04:55:35;;;;;;;;;;;19.10;99.90;;;18.58;90.07;95286.13;10316324;28;2119;-82
2021/07/31 05:00:37;;;;;;;;;;;19.30;99.90;;;18.84;88.77;95283.16;10303072;28;2151;-82
2021/07/31 05:05:40;;;;;;;;;;;19.40;99.90;;;18.96;88.67;95279.63;10280387;28;2392;-82
2021/07/31 05:10:43;;;;;;;;;;;19.60;99.90;;;19.37;86.06;95279.41;10316961;28;2135;-81
2021/07/31 05:15:46;;;;;;;;;;;19.80;99.90;;;19.76;82.87;95274.41;10303611;28;2191;-81
2021/07/31 05:20:48;;;;;;;;;;;20.10;99.90;;;19.96;81.83;95275.38;10283422;28;2259;-83
2021/07/31 05:25:51;;;;;;;;;;;20.50;99.90;;;20.23;80.01;95282.81;10290938;28;1974;-81
2021/07/31 05:30:54;;;;;;;;;;;20.70;99.90;;;20.33;79.17;95286.16;10277758;28;2168;-82
2021/07/31 05:35:57;;;;;;;;;;;20.80;99.90;;;19.99;80.35;95288.34;10283589;28;2267;-82
2021/07/31 05:41:00;;;;;;;;;;;20.80;99.90;;;19.81;81.95;95287.00;10279392;28;1897;-82
2021/07/31 05:46:02;;;;;;;;;;;20.60;99.90;;;20.80;78.20;95289.03;10289291;28;2203;-80
2021/07/31 05:51:05;;;;;;;;;;;21.00;99.90;;;21.69;72.70;95279.50;10288521;28;2105;-82
2021/07/31 05:56:09;;;;;;;;;;;21.70;99.90;;;21.63;72.76;95280.91;10316213;28;2142;-81
2021/07/31 06:01:12;;;;;;;;;;;22.00;99.90;;;21.36;74.24;95282.63;10309225;28;2065;-83
2021/07/31 06:06:15;;;;;;;;;;;22.00;99.90;;;21.91;71.16;95286.25;10290933;28;2166;-81
2021/07/31 06:11:18;;;;;;;;;;;22.30;99.90;;;21.98;70.51;95298.13;10289392;28;2157;-81
2021/07/31 06:16:20;;;;;;;;;;;22.40;99.90;;;21.74;71.08;95292.91;10284324;28;2147;-82
2021/07/31 06:21:23;;;;;;;;;;;22.40;99.90;;;21.13;74.66;95296.91;10286232;28;2102;-81
2021/07/31 06:26:26;;;;;;;;;;;22.10;99.90;;;21.59;71.70;95289.84;10276755;28;2061;-80
2021/07/31 06:31:29;;;;;;;;;;;22.00;99.90;;;21.91;72.10;95294.47;10286800;28;2200;-82
2021/07/31 06:36:33;;;;;;;;;;;22.30;99.90;;;22.04;69.28;95285.75;10296736;28;2084;-83
2021/07/31 06:41:36;;;;;;;;;;;22.60;99.90;;;22.21;68.92;95278.31;10288179;28;2178;-83
2021/07/31 06:46:39;;;;;;;;;;;22.70;99.90;;;21.55;71.51;95286.22;10287350;28;2299;-82
2021/07/31 06:51:42;;;;;;;;;;;22.50;99.90;;;21.72;70.17;95278.78;10282089;28;1998;-83
2021/07/31 06:56:44;;;;;;;;;;;22.30;99.90;;;22.36;67.02;95282.91;10286288;28;2206;-82
2021/07/31 07:01:47;;;;;;;;;;;22.60;99.90;;;22.54;65.07;95292.28;10282903;28;2136;-82
2021/07/31 07:06:50;;;;;;;;;;;23.00;99.90;;;22.23;65.88;95287.75;10294384;28;2191;-81
2021/07/31 07:11:53;;;;;;;;;;;22.90;99.90;;;21.01;70.21;95289.59;10298852;28;2083;-82
2021/07/31 07:16:56;;;;;;;;;;;22.20;99.90;;;21.55;68.27;95286.22;10316555;28;2053;-80
2021/07/31 07:21:59;;;;;;;;;;;22.00;99.90;;;21.96;65.49;95277.75;10317095;28;2169;-80
2021/07/31 07:27:02;;;;;;;;;;;22.40;99.90;;;21.71;66.73;95278.00;10309125;28;1929;-81
2021/07/31 07:32:04;;;;;;;;;;;22.30;99.90;;;21.93;66.40;95268.31;10307667;28;2020;-79
2021/07/31 07:37:07;;;;;;;;;;;22.30;99.90;;;22.86;63.17;95264.69;10295362;28;1911;-81
2021/07/31 07:42:10;;;;;;;;;;;22.90;99.90;;;23.07;61.54;95267.81;10303545;28;1359;-81
2021/07/31 07:47:13;;;;;;;;;;;23.30;99.90;;;23.11;61.84;95265.94;10296483;28;1676;-82
2021/07/31 07:52:16;;;;;;;;;;;23.50;99.90;;;23.09;61.99;95268.25;10303893;28;1518;-84
2021/07/31 07:57:19;;;;;;;;;;;23.60;99.90;;;23.54;60.96;95272.13;10318554;28;1914;-79
2021/07/31 08:02:21;;;;;;;;;;;23.70;99.90;;;23.08;60.84;95265.88;10302961;28;1518;-79
2021/07/31 08:07:24;;;;;;;;;;;23.60;99.90;;;22.33;63.54;95278.97;10304588;28;1258;-79
2021/07/31 08:12:27;;;;;;;;;;;23.30;99.90;;;22.48;63.91;95271.81;10295835;28;1672;-81
2021/07/31 08:17:30;;;;;;;;;;;23.00;99.90;;;22.06;63.13;95277.19;10297227;28;1902;-80
2021/07/31 08:22:33;;;;;;;;;;;23.00;99.90;;;23.53;58.59;95264.22;10291428;28;1711;-79
2021/07/31 08:27:41;;;;;;;;;;;23.40;99.90;;;23.84;58.18;95257.66;10288748;28;1604;-81
2021/07/31 08:32:44;;;;;;;;;;;24.00;99.90;;;24.81;55.84;95260.41;10299787;28;1603;-80
2021/07/31 08:37:47;;;;;;;;;;;24.50;99.90;;;23.56;55.48;95261.56;10279435;28;1984;-81
2021/07/31 08:42:50;;;;;;;;;;;24.40;99.90;;;22.74;58.68;95273.88;10284539;28;1499;-83
2021/07/31 08:47:53;;;;;;;;;;;23.70;99.90;;;22.89;59.07;95273.00;10284621;28;1573;-81
2021/07/31 08:52:56;;;;;;;;;;;23.40;99.90;;;24.03;55.57;95265.75;10292390;28;1462;-82
2021/07/31 08:57:59;;;;;;;;;;;24.00;99.90;;;24.40;54.17;95271.38;10292947;28;1902;-80
2021/07/31 09:03:01;;;;;;;;;;;24.70;99.90;;;24.55;52.25;95275.06;10281381;28;1395;-80
2021/07/31 09:08:04;;;;;;;;;;;24.80;99.90;;;24.07;52.23;95263.88;10294652;28;1505;-81
2021/07/31 09:13:07;;;;;;;;;;;24.80;99.90;;;24.61;52.07;95268.06;10292071;28;2589;-81
2021/07/31 09:18:10;;;;;;;;;;;24.80;99.90;;;23.65;57.25;95273.09;10288765;28;2546;-82
2021/07/31 09:23:12;;;;;;;;;;;24.70;99.90;;;22.78;60.64;95272.00;10288361;28;2472;-81
2021/07/31 09:28:15;;;;;;;;;;;24.00;99.90;;;23.44;58.83;95267.25;10310047;28;2463;-81
2021/07/31 09:33:20;;;;;;;;;;;23.90;99.90;;;24.03;56.60;95264.97;10296635;28;2526;-82
2021/07/31 09:38:23;;;;;;;;;;;24.40;99.90;;;23.95;55.69;95269.59;10272448;28;2482;-82
2021/07/31 09:43:28;;;;;;;;;;;24.40;99.90;;;24.16;55.96;95269.84;10275062;28;2466;-82
2021/07/31 09:48:32;;;;;;;;;;;24.50;99.90;;;24.78;54.58;95275.72;10290683;28;2599;-81
2021/07/31 09:53:35;;;;;;;;;;;24.80;99.90;;;24.82;52.10;95281.25;10269415;28;2550;-81
2021/07/31 09:58:38;;;;;;;;;;;25.20;99.90;;;24.55;53.34;95280.56;10281231;28;2440;-82
2021/07/31 10:03:40;;;;;;;;;;;25.00;99.90;;;23.36;55.40;95293.00;10274327;28;2460;-82
2021/07/31 10:08:43;;;;;;;;;;;24.50;99.90;;;22.61;59.08;95275.97;10282614;28;2770;-82
2021/07/31 10:13:46;;;;;;;;;;;23.60;99.90;;;22.43;59.26;95274.06;10278788;28;2317;-79
2021/07/31 10:18:49;;;;;;;;;;;23.20;99.90;;;22.11;61.20;95272.25;10321991;28;2044;-80
2021/07/31 10:23:51;;;;;;;;;;;23.00;99.90;;;22.13;60.56;95261.72;10310013;28;1976;-83
2021/07/31 10:28:54;;;;;;;;;;;22.90;99.90;;;22.49;59.41;95267.91;10320215;28;2318;-80
2021/07/31 10:33:57;;;;;;;;;;;23.10;99.90;;;24.03;54.95;95259.50;10297730;28;2313;-83
2021/07/31 10:38:59;;;;;;;;;;;23.90;99.90;;;24.43;53.16;95256.91;10305485;28;2349;-81
2021/07/31 10:44:02;;;;;;;;;;;24.50;99.90;;;25.16;50.92;95248.22;10310586;28;1874;-81
2021/07/31 10:49:05;;;;;;;;;;;25.00;99.90;;;24.84;50.63;95248.69;10309574;28;2030;-82
2021/07/31 10:54:08;;;;;;;;;;;25.60;99.90;;;25.69;51.04;95248.59;10311739;28;2016;-82
2021/07/31 10:59:11;;;;;;;;;;;25.90;99.90;;;26.78;46.26;95252.28;10320921;28;2239;-82
2021/07/31 11:04:13;;;;;;;;;;;26.80;99.90;;;26.59;46.23;95249.88;10306138;28;2425;-83
2021/07/31 11:09:16;;;;;;;;;;;27.00;99.90;;;26.62;45.97;95251.88;10309189;28;2234;-82
2021/07/31 11:14:20;;;;;;;;;;;27.00;99.90;;;26.53;46.16;95251.44;10297289;28;2403;-84
2021/07/31 11:19:36;;;;;;;;;;;26.80;99.90;;;26.90;46.57;95242.84;10298766;28;2071;-82
2021/07/31 11:24:38;;;;;;;;;;;27.20;99.90;;;27.25;45.01;95241.34;10330585;28;2325;-83
2021/07/31 11:29:41;;;;;;;;;;;27.90;99.90;;;28.07;42.35;95230.22;10320935;28;2288;-84
2021/07/31 11:34:44;;;;;;;;;;;28.80;99.90;;;27.77;43.31;95228.72;10310274;28;2314;-84
2021/07/31 11:39:47;;;;;;;;;;;29.10;99.90;;;28.42;41.33;95226.56;10308563;28;2266;-80
2021/07/31 11:44:50;;;;;;;;;;;29.00;99.90;;;27.14;44.56;95230.31;10300717;28;2041;-81
2021/07/31 11:49:53;;;;;;;;;;;28.40;99.90;;;26.27;46.34;95224.94;10294974;28;2388;-81
2021/07/31 11:54:59;;;;;;;;;;;27.50;99.90;;;25.67;47.72;95226.19;10290454;28;2421;-80
2021/07/31 12:00:02;;;;;;;;;;;26.70;99.90;;;25.54;48.12;95219.41;10287897;28;2329;-78
2021/07/31 12:05:05;;;;;;;;;;;26.30;99.90;;;25.40;47.91;95219.34;10282103;28;2258;-81
2021/07/31 12:10:13;;;;;;;;;;;26.20;99.90;;;25.65;48.80;95214.78;10280772;28;2332;-80
2021/07/31 12:15:17;;;;;;;;;;;26.20;99.90;;;25.91;45.87;95221.25;10282844;28;2119;-81
2021/07/31 12:20:21;;;;;;;;;;;26.30;99.90;;;26.04;45.47;95219.75;10315389;28;2404;-82
2021/07/31 12:25:26;;;;;;;;;;;26.30;99.90;;;25.99;46.37;95225.59;10310170;28;2277;-79
2021/07/31 12:30:30;;;;;;;;;;;26.60;99.90;;;26.68;43.19;95215.25;10307494;28;2347;-79
2021/07/31 12:35:33;;;;;;;;;;;26.80;99.90;;;26.88;42.49;95210.16;10305060;28;2273;-79
2021/07/31 12:40:38;;;;;;;;;;;27.20;99.90;;;26.76;43.53;95210.53;10276514;28;2233;-80
2021/07/31 12:45:43;;;;;;;;;;;27.20;99.90;;;25.56;45.02;95204.09;10279000;28;2293;-80
2021/07/31 12:50:51;;;;;;;;;;;26.60;99.90;;;26.18;43.50;95197.75;10297195;28;1852;-81
2021/07/31 12:55:55;;;;;;;;;;;26.50;99.90;;;26.32;45.55;95202.53;10281038;28;2291;-80
2021/07/31 13:01:02;;;;;;;;;;;26.70;99.90;;;26.96;44.46;95202.69;10281188;28;2210;-79
2021/07/31 13:06:12;;;;;;;;;;;27.20;99.90;;;27.26;42.66;95204.31;10288366;28;2332;-81
2021/07/31 13:11:18;;;;;;;;;;;27.60;99.90;;;26.38;43.68;95196.25;10285610;28;2164;-82
2021/07/31 13:21:41;;;;;;;;;;;26.70;99.90;;;25.64;45.03;95195.88;10298764;28;2326;-81
2021/07/31 13:26:44;;;;;;;;;;;26.50;99.90;;;25.64;46.17;95190.38;10290412;28;2262;-79
2021/07/31 13:31:47;;;;;;;;;;;26.30;99.90;;;25.69;46.50;95193.56;10298967;28;2270;-81
2021/07/31 13:36:52;;;;;;;;;;;26.30;99.90;;;25.08;47.70;95195.13;10301543;28;2326;-81
2021/07/31 13:41:57;;;;;;;;;;;26.10;99.90;;;24.39;49.19;95190.13;10318804;28;2238;-81
2021/07/31 13:47:02;;;;;;;;;;;25.60;99.90;;;24.48;50.95;95184.31;10325914;28;2106;-79
2021/07/31 13:52:05;;;;;;;;;;;25.30;99.90;;;24.77;50.42;95183.44;10294307;28;2386;-80
2021/07/31 13:57:08;;;;;;;;;;;25.40;99.90;;;25.16;49.13;95194.00;10287709;28;2325;-80
2021/07/31 14:02:11;;;;;;;;;;;25.70;99.90;;;25.23;47.66;95194.06;10292341;28;2353;-80
2021/07/31 14:07:17;;;;;;;;;;;25.80;99.90;;;25.45;47.23;95183.19;10295437;28;2274;-80
2021/07/31 14:12:22;;;;;;;;;;;25.90;99.90;;;26.09;45.93;95173.34;10290450;28;2340;-82
2021/07/31 14:17:25;;;;;;;;;;;26.20;99.90;;;26.36;45.15;95179.31;10307958;28;2020;-80
2021/07/31 14:22:28;;;;;;;;;;;26.70;99.90;;;26.29;45.37;95178.50;10296277;28;2114;-80
2021/07/31 14:27:39;;;;;;;;;;;26.90;99.90;;;25.92;45.12;95173.25;10280243;28;2284;-79
2021/07/31 14:32:46;;;;;;;;;;;26.70;99.90;;;25.56;46.96;95184.84;10280551;28;2357;-81
2021/07/31 14:37:52;;;;;;;;;;;26.30;99.90;;;25.46;47.88;95182.03;10300777;28;2369;-82
2021/07/31 14:42:55;;;;;;;;;;;26.10;99.90;;;25.13;48.75;95182.97;10310624;28;2340;-81
2021/07/31 14:47:58;;;;;;;;;;;26.00;99.90;;;25.15;47.79;95164.94;10290695;28;2256;-81
2021/07/31 14:53:02;;;;;;;;;;;26.00;99.90;;;26.23;46.49;95150.56;10284433;28;2325;-80
2021/07/31 14:58:05;;;;;;;;;;;26.30;99.90;;;26.91;43.78;95140.44;10312201;28;2214;-79
2021/07/31 15:03:11;;;;;;;;;;;27.00;99.90;;;26.51;44.83;95133.31;10317787;28;1913;-82
2021/07/31 15:08:23;;;;;;;;;;;27.20;99.90;;;26.39;45.84;95142.72;10318297;28;2598;-84
2021/07/31 15:13:26;;;;;;;;;;;27.20;99.90;;;25.98;47.18;95144.97;10323895;28;2542;-82
2021/07/31 15:18:29;;;;;;;;;;;27.10;99.90;;;26.01;46.32;95146.94;10318577;28;1944;-85
2021/07/31 15:23:33;;;;;;;;;;;26.90;99.90;;;25.44;48.77;95143.88;10317726;28;2310;-80
2021/07/31 15:28:39;;;;;;;;;;;26.70;99.90;;;25.86;46.64;95137.03;10304845;28;2330;-83
2021/07/31 15:33:45;;;;;;;;;;;26.60;99.90;;;25.47;49.13;95145.88;10309492;28;2291;-83
2021/07/31 15:38:48;;;;;;;;;;;26.50;99.90;;;25.31;49.08;95143.41;10289227;28;2366;-81
2021/07/31 15:43:52;;;;;;;;;;;26.30;99.90;;;25.36;49.10;95149.72;10295677;28;2500;-80
2021/07/31 15:48:57;;;;;;;;;;;26.20;99.90;;;25.45;48.81;95147.41;10289185;28;2284;-81
2021/07/31 15:54:04;;;;;;;;;;;26.20;99.90;;;25.20;50.28;95130.78;10283466;28;2336;-80
2021/07/31 15:59:10;;;;;;;;;;;26.10;99.90;;;25.09;51.41;95138.94;10309877;28;2367;-80
2021/07/31 16:04:14;;;;;;;;;;;26.00;99.90;;;25.11;49.89;95125.59;10296520;28;2647;-84
2021/07/31 16:09:28;;;;;;;;;;;25.80;99.90;;;25.04;51.15;95111.78;10292925;28;2409;-86
2021/07/31 16:14:41;;;;;;;;;;;25.90;99.90;;;25.18;49.66;95097.34;10305052;28;2341;-85
2021/07/31 16:19:47;;;;;;;;;;;26.00;99.90;;;24.80;50.81;95085.69;10299285;28;2431;-83
2021/07/31 16:24:55;;;;;;;;;;;25.80;99.90;;;24.59;51.78;95089.06;10281360;28;2714;-83
2021/07/31 16:30:02;;;;;;;;;;;25.60;99.90;;;24.63;50.35;95092.63;10283966;28;2353;-84
2021/07/31 16:35:11;;;;;;;;;;;25.40;99.90;;;24.51;51.73;95088.22;10322681;28;2443;-84
2021/07/31 16:40:16;;;;;;;;;;;25.40;99.90;;;24.19;53.31;95100.84;10310273;28;2416;-84
2021/07/31 16:45:21;;;;;;;;;;;25.20;99.90;;;24.20;53.58;95108.69;10298574;28;2780;-84
2021/07/31 16:50:42;;;;;;;;;;;25.10;99.90;;;24.19;54.10;95093.38;10312258;28;2405;-86
2021/07/31 16:55:56;;;;;;;;;;;25.00;99.90;;;24.14;54.09;95080.00;10319806;28;2088;-84
2021/07/31 17:01:01;;;;;;;;;;;25.00;99.90;;;23.94;55.01;95092.34;10300198;28;2329;-84
2021/07/31 17:06:05;;;;;;;;;;;24.80;99.90;;;23.71;55.29;95100.69;10307876;28;2349;-86
2021/07/31 17:11:11;;;;;;;;;;;24.70;99.90;;;23.59;55.37;95125.59;10325491;28;1640;-84
2021/07/31 17:16:16;;;;;;;;;;;24.50;99.90;;;23.33;56.43;95140.13;10332072;28;1509;-86
2021/07/31 17:21:31;;;;;;;;;;;24.30;99.90;;;23.14;57.04;95160.22;10324741;28;2285;-85
2021/07/31 17:26:40;;;;;;;;;;;24.10;99.90;;;23.05;57.25;95149.53;10335313;28;2122;-87
2021/07/31 17:31:45;;;;;;;;;;;24.00;99.90;;;23.12;56.64;95168.03;10334888;28;1724;-86
2021/07/31 17:37:00;;;;;;;;;;;24.00;99.90;;;23.14;56.68;95174.72;10330546;28;1317;-83
2021/07/31 17:42:13;;;;;;;;;;;24.00;99.90;;;22.98;56.84;95176.84;10305826;28;2379;-83
2021/07/31 17:47:20;;;;;;;;;;;23.90;99.90;;;22.67;57.42;95156.72;10299103;28;1915;-84
2021/07/31 17:52:34;;;;;;;;;;;23.80;99.90;;;22.60;57.39;95158.56;10296412;28;2075;-84
2021/07/31 17:57:42;;;;;;;;;;;23.60;99.90;;;22.53;58.37;95147.50;10298978;28;2293;-82
2021/07/31 18:02:47;;;;;;;;;;;23.50;99.90;;;22.39;58.76;95132.41;10286076;28;2322;-81
2021/07/31 18:07:50;;;;;;;;;;;23.30;99.90;;;22.34;59.20;95129.16;10286184;28;2424;-81
2021/07/31 18:12:54;;;;;;;;;;;23.20;99.90;;;22.29;59.85;95143.16;10286418;28;1779;-83
2021/07/31 18:18:00;;;;;;;;;;;23.20;99.90;;;22.14;60.69;95155.78;10283657;28;2278;-83
2021/07/31 18:23:06;;;;;;;;;;;23.10;99.90;;;21.99;61.42;95168.34;10289381;28;1910;-85
2021/07/31 18:28:14;;;;;;;;;;;23.00;99.90;;;22.02;61.54;95162.19;10309232;28;2304;-83
2021/07/31 18:33:18;;;;;;;;;;;23.00;99.90;;;22.06;61.81;95154.81;10286420;28;2534;-83
2021/07/31 18:38:22;;;;;;;;;;;22.90;99.90;;;21.91;62.26;95142.03;10306703;28;2307;-81
2021/07/31 18:43:30;;;;;;;;;;;22.90;99.90;;;21.74;61.87;95134.25;10291234;28;2335;-84
2021/07/31 18:48:45;;;;;;;;;;;22.80;99.90;;;21.58;63.07;95131.59;10293176;28;2410;-85
2021/07/31 18:53:49;;;;;;;;;;;22.60;99.90;;;21.53;63.53;95140.88;10282758;28;2479;-82
2021/07/31 18:58:59;;;;;;;;;;;22.50;99.90;;;21.48;63.82;95132.94;10290532;28;2321;-81
2021/07/31 19:04:06;;;;;;;;;;;22.40;99.90;;;21.41;63.90;95132.78;10277427;28;2440;-85
2021/07/31 19:09:12;;;;;;;;;;;22.40;99.90;;;21.36;64.13;95146.75;10289638;28;2400;-81
2021/07/31 19:14:21;;;;;;;;;;;22.30;99.90;;;21.25;63.77;95151.16;10286868;28;2471;-82
2021/07/31 19:19:26;;;;;;;;;;;22.20;99.90;;;21.31;64.46;95168.88;10294647;28;2420;-83
2021/07/31 19:24:29;;;;;;;;;;;22.10;99.90;;;21.29;64.78;95173.91;10287816;28;2396;-81
2021/07/31 19:29:36;;;;;;;;;;;22.20;99.90;;;21.28;64.63;95164.13;10300894;28;2474;-81
2021/07/31 19:34:39;;;;;;;;;;;22.10;99.90;;;21.20;64.75;95165.91;10285474;28;2451;-83
2021/07/31 19:39:49;;;;;;;;;;;22.10;99.90;;;21.03;65.42;95158.06;10312519;28;2247;-81
2021/07/31 19:44:57;;;;;;;;;;;22.00;99.90;;;20.91;66.04;95148.03;10326123;28;2748;-83
2021/07/31 19:50:07;;;;;;;;;;;21.90;99.90;;;20.89;66.42;95136.69;10339296;28;2312;-80
2021/07/31 19:55:14;;;;;;;;;;;21.80;99.90;;;20.87;67.10;95146.41;10292429;28;1908;-82
2021/07/31 20:00:21;;;;;;;;;;;21.80;99.90;;;20.93;66.78;95153.97;10301693;28;2030;-82
2021/07/31 20:05:29;;;;;;;;;;;21.70;99.90;;;20.82;67.33;95128.31;10288528;28;2444;-82
2021/07/31 20:10:40;;;;;;;;;;;21.70;99.90;;;20.73;68.47;95114.06;10295948;28;2372;-84
2021/07/31 20:15:49;;;;;;;;;;;21.70;99.90;;;20.69;69.80;95110.47;10300795;28;2238;-81
2021/07/31 20:21:00;;;;;;;;;;;21.60;99.90;;;20.58;70.46;95102.00;10295681;28;2361;-82
2021/07/31 20:26:07;;;;;;;;;;;21.60;99.90;;;20.55;71.15;95090.97;10311740;28;2296;-83
2021/07/31 20:31:17;;;;;;;;;;;21.50;99.90;;;20.46;71.74;95081.03;10289003;28;2400;-83
2021/07/31 20:36:20;;;;;;;;;;;21.40;99.90;;;20.40;72.77;95068.78;10289623;28;2404;-84
2021/07/31 20:41:51;;;;;;;;;;;21.40;99.90;;;20.25;74.05;95081.28;10299229;28;2424;-83
2021/07/31 20:47:36;;;;;;;;;;;21.30;99.90;;;20.41;73.88;95086.72;10309830;28;1924;-81
2021/07/31 20:52:41;;;;;;;;;;;21.30;99.90;;;20.18;73.93;95066.69;10303607;28;2246;-83
2021/07/31 20:57:50;;;;;;;;;;;21.20;99.90;;;19.91;75.82;95079.22;10299272;28;2206;-84
2021/07/31 21:03:01;;;;;;;;;;;21.00;99.90;;;19.81;75.30;95080.53;10306711;28;2344;-84
2021/07/31 21:08:06;;;;;;;;;;;20.80;99.90;;;19.76;74.85;95071.81;10302110;28;2654;-86
2021/07/31 21:13:14;;;;;;;;;;;20.80;99.90;;;19.64;74.17;95069.94;10310257;28;2234;-84
2021/07/31 21:18:21;;;;;;;;;;;20.70;99.90;;;19.57;74.81;95080.63;10289821;28;2447;-81
2021/07/31 21:23:29;;;;;;;;;;;20.60;99.90;;;19.35;75.48;95082.75;10285796;28;1989;-83
2021/07/31 21:28:38;;;;;;;;;;;20.50;99.90;;;19.14;77.02;95065.78;10334373;28;2407;-83
2021/07/31 21:33:40;;;;;;;;;;;20.30;99.90;;;19.02;77.95;95065.81;10316292;28;1997;-85
2021/07/31 21:38:43;;;;;;;;;;;20.10;99.90;;;18.87;78.17;95048.25;10325172;28;1624;-85
2021/07/31 21:43:46;;;;;;;;;;;20.00;99.90;;;18.83;78.82;95064.50;10317661;28;1892;-85
2021/07/31 21:48:49;;;;;;;;;;;19.90;99.90;;;18.83;79.05;95064.50;10325023;28;1566;-86
2021/07/31 21:53:51;;;;;;;;;;;19.80;99.90;;;18.87;79.13;95067.31;10337349;28;2433;-84
2021/07/31 21:58:54;;;;;;;;;;;19.80;99.90;;;18.93;78.18;95062.44;10323017;28;1733;-82
2021/07/31 22:03:57;;;;;;;;;;;19.90;99.90;;;18.90;78.35;95059.28;10305403;28;2527;-82
2021/07/31 22:09:00;;;;;;;;;;;19.90;99.90;;;18.86;78.79;95058.38;10307089;28;2257;-84
2021/07/31 22:14:03;;;;;;;;;;;19.90;99.90;;;19.02;78.71;95049.47;10296206;28;1932;-83
2021/07/31 22:19:05;;;;;;;;;;;19.90;99.90;;;19.02;79.00;95052.19;10308720;28;2412;-83
2021/07/31 22:24:08;;;;;;;;;;;19.90;99.90;;;19.00;79.46;95038.13;10328508;28;1981;-83
2021/07/31 22:29:11;;;;;;;;;;;20.00;99.90;;;18.85;80.19;95031.50;10309958;28;1906;-82
2021/07/31 22:34:14;;;;;;;;;;;19.90;99.90;;;18.80;81.47;95037.97;10282280;28;2439;-83
2021/07/31 22:39:17;;;;;;;;;;;19.80;99.90;;;18.69;82.61;95036.84;10280611;28;2741;-82
2021/07/31 22:44:19;;;;;;;;;;;19.70;99.90;;;18.71;82.96;95031.06;10288379;28;2289;-83
2021/07/31 22:49:22;;;;;;;;;;;19.60;99.90;;;18.71;82.65;95012.81;10277266;28;2370;-82
2021/07/31 22:54:25;;;;;;;;;;;19.60;99.90;;;18.51;88.29;95003.63;10286456;28;2333;-82
2021/07/31 22:59:28;;;;;;;;;;;19.60;99.90;;;18.17;91.61;95004.88;10285550;28;1723;-82
2021/07/31 23:04:31;;;;;;;;;;;19.30;99.90;;;17.90;94.95;94992.75;10289826;28;2007;-84
2021/07/31 23:09:33;;;;;;;;;;;19.10;99.90;;;17.85;98.84;94992.19;10296061;28;2379;-81
2021/07/31 23:14:36;;;;;;;;;;;18.90;99.90;;;17.76;99.19;94990.38;10306568;28;1273;-81
2021/07/31 23:19:41;;;;;;;;;;;18.80;99.90;;;17.73;98.90;94985.59;10318100;28;1613;-83
2021/07/31 23:24:44;;;;;;;;;;;18.80;99.90;;;17.67;98.20;94981.47;10327452;28;2089;-83